<?xml version="1.0" encoding="utf-8"?>
<gpx xmlns:xsi="http://www.w3.org/2001/XMLSchema-instance" xmlns:xsd="http://www.w3.org/2001/XMLSchema" version="1.1" creator="Shapelink.com" xmlns="http://www.topografix.com/GPX/1/1" xmlns:gpxtpx="http://www.garmin.com/xmlschemas/TrackPointExtension/v1">
  <metadata>
    <name>Övrigt 2.48 km, 2020-06-19</name>
    <desc></desc>
    <author><name>Marian Moron</name></author> 
    <time>2020-06-19T21:08:09Z</time>
  </metadata>
  <trk>
    <name>Övrigt 2.48 km, 2020-06-19</name>
    <trkseg>
      <trkpt lat="51.229207791853" lon="4.458308553947">
        <ele>11</ele>
        <time>2020-06-19T21:08:09Z</time>
      </trkpt>
      <trkpt lat="51.229069909598" lon="4.458306961386">
        <ele>7.6</ele>
        <time>2020-06-19T21:08:27Z</time>
      </trkpt>
      <trkpt lat="51.228635643359" lon="4.458503936036">
        <ele>8.4</ele>
        <time>2020-06-19T21:08:50Z</time>
      </trkpt>
      <trkpt lat="51.228609408012" lon="4.458527740632">
        <ele>8</ele>
        <time>2020-06-19T21:08:54Z</time>
      </trkpt>
      <trkpt lat="51.228640001947" lon="4.458852958352">
        <ele>6.2</ele>
        <time>2020-06-19T21:09:15Z</time>
      </trkpt>
      <trkpt lat="51.228660621421" lon="4.459046580242">
        <ele>7.6</ele>
        <time>2020-06-19T21:09:31Z</time>
      </trkpt>
      <trkpt lat="51.228470268472" lon="4.459667511394">
        <ele>6.2</ele>
        <time>2020-06-19T21:10:08Z</time>
      </trkpt>
      <trkpt lat="51.228382007065" lon="4.459933636719">
        <ele>7</ele>
        <time>2020-06-19T21:10:43Z</time>
      </trkpt>
      <trkpt lat="51.228348563284" lon="4.460065735463">
        <ele>7.2</ele>
        <time>2020-06-19T21:10:56Z</time>
      </trkpt>
      <trkpt lat="51.228198191998" lon="4.460612319162">
        <ele>3</ele>
        <time>2020-06-19T21:11:38Z</time>
      </trkpt>
      <trkpt lat="51.228300115902" lon="4.460746345743">
        <ele>0</ele>
        <time>2020-06-19T21:11:59Z</time>
      </trkpt>
      <trkpt lat="51.228516704198" lon="4.461427961851">
        <ele>0</ele>
        <time>2020-06-19T21:12:40Z</time>
      </trkpt>
      <trkpt lat="51.228528355039" lon="4.461437601036">
        <ele>0</ele>
        <time>2020-06-19T21:12:41Z</time>
      </trkpt>
      <trkpt lat="51.228989443358" lon="4.461472218283">
        <ele>0</ele>
        <time>2020-06-19T21:13:15Z</time>
      </trkpt>
      <trkpt lat="51.229381716278" lon="4.461186311674">
        <ele>0</ele>
        <time>2020-06-19T21:13:54Z</time>
      </trkpt>
      <trkpt lat="51.229564693155" lon="4.461032839085">
        <ele>0</ele>
        <time>2020-06-19T21:14:17Z</time>
      </trkpt>
      <trkpt lat="51.229843558968" lon="4.461513624869">
        <ele>0</ele>
        <time>2020-06-19T21:14:57Z</time>
      </trkpt>
      <trkpt lat="51.229877338025" lon="4.461626193786">
        <ele>0</ele>
        <time>2020-06-19T21:15:03Z</time>
      </trkpt>
      <trkpt lat="51.229885552287" lon="4.461697439936">
        <ele>0</ele>
        <time>2020-06-19T21:15:07Z</time>
      </trkpt>
      <trkpt lat="51.229923354656" lon="4.461812523423">
        <ele>0</ele>
        <time>2020-06-19T21:15:15Z</time>
      </trkpt>
      <trkpt lat="51.229962665767" lon="4.461936324086">
        <ele>0</ele>
        <time>2020-06-19T21:15:39Z</time>
      </trkpt>
      <trkpt lat="51.230045898034" lon="4.462174453865">
        <ele>0</ele>
        <time>2020-06-19T21:15:59Z</time>
      </trkpt>
      <trkpt lat="51.230072971571" lon="4.46235424562">
        <ele>1.2</ele>
        <time>2020-06-19T21:16:12Z</time>
      </trkpt>
      <trkpt lat="51.230138098934" lon="4.462750038938">
        <ele>0</ele>
        <time>2020-06-19T21:16:57Z</time>
      </trkpt>
      <trkpt lat="51.230113372329" lon="4.463027647466">
        <ele>0</ele>
        <time>2020-06-19T21:17:28Z</time>
      </trkpt>
      <trkpt lat="51.230178583511" lon="4.46307173626">
        <ele>0</ele>
        <time>2020-06-19T21:17:37Z</time>
      </trkpt>
      <trkpt lat="51.230365667519" lon="4.463716891103">
        <ele>0</ele>
        <time>2020-06-19T21:18:17Z</time>
      </trkpt>
      <trkpt lat="51.230343706941" lon="4.463792076746">
        <ele>0</ele>
        <time>2020-06-19T21:18:22Z</time>
      </trkpt>
      <trkpt lat="51.230032989908" lon="4.464111343317">
        <ele>0</ele>
        <time>2020-06-19T21:18:57Z</time>
      </trkpt>
      <trkpt lat="51.229752531534" lon="4.464239921663">
        <ele>16.4</ele>
        <time>2020-06-19T21:19:28Z</time>
      </trkpt>
      <trkpt lat="51.229409544186" lon="4.464374786434">
        <ele>12.8</ele>
        <time>2020-06-19T21:20:13Z</time>
      </trkpt>
      <trkpt lat="51.228990281548" lon="4.46441116388">
        <ele>3.4</ele>
        <time>2020-06-19T21:21:17Z</time>
      </trkpt>
      <trkpt lat="51.228953485007" lon="4.464408481672">
        <ele>3.4</ele>
        <time>2020-06-19T21:21:21Z</time>
      </trkpt>
      <trkpt lat="51.228708314432" lon="4.464805364637">
        <ele>0</ele>
        <time>2020-06-19T21:22:30Z</time>
      </trkpt>
      <trkpt lat="51.228705380767" lon="4.465468289108">
        <ele>0</ele>
        <time>2020-06-19T21:23:42Z</time>
      </trkpt>
      <trkpt lat="51.228615191523" lon="4.465759392495">
        <ele>0</ele>
        <time>2020-06-19T21:24:11Z</time>
      </trkpt>
      <trkpt lat="51.228467167169" lon="4.465957959706">
        <ele>0</ele>
        <time>2020-06-19T21:24:33Z</time>
      </trkpt>
      <trkpt lat="51.228272958546" lon="4.466170943785">
        <ele>1</ele>
        <time>2020-06-19T21:24:58Z</time>
      </trkpt>
      <trkpt lat="51.228187630804" lon="4.466249146912">
        <ele>3.4</ele>
        <time>2020-06-19T21:25:11Z</time>
      </trkpt>
      <trkpt lat="51.227940029478" lon="4.466549051294">
        <ele>0.2</ele>
        <time>2020-06-19T21:25:39Z</time>
      </trkpt>
      <trkpt lat="51.227873058097" lon="4.46637169029">
        <ele>0</ele>
        <time>2020-06-19T21:25:51Z</time>
      </trkpt>
      <trkpt lat="51.227789071459" lon="4.465673226563">
        <ele>0</ele>
        <time>2020-06-19T21:26:31Z</time>
      </trkpt>
      <trkpt lat="51.227872219907" lon="4.465367622489">
        <ele>0</ele>
        <time>2020-06-19T21:26:59Z</time>
      </trkpt>
      <trkpt lat="51.227807846915" lon="4.464662872337">
        <ele>0</ele>
        <time>2020-06-19T21:27:43Z</time>
      </trkpt>
      <trkpt lat="51.227777923532" lon="4.464524570987">
        <ele>0</ele>
        <time>2020-06-19T21:27:58Z</time>
      </trkpt>
      <trkpt lat="51.227735092023" lon="4.464417282667">
        <ele>0</ele>
        <time>2020-06-19T21:28:10Z</time>
      </trkpt>
      <trkpt lat="51.227777336799" lon="4.464029535973">
        <ele>0</ele>
        <time>2020-06-19T21:28:35Z</time>
      </trkpt>
      <trkpt lat="51.227698295482" lon="4.463326965115">
        <ele>0</ele>
        <time>2020-06-19T21:29:18Z</time>
      </trkpt>
      <trkpt lat="51.227603999107" lon="4.46288062894">
        <ele>0</ele>
        <time>2020-06-19T21:29:48Z</time>
      </trkpt>
      <trkpt lat="51.227528394369" lon="4.462465389614">
        <ele>0</ele>
        <time>2020-06-19T21:30:12Z</time>
      </trkpt>
      <trkpt lat="51.227453795459" lon="4.462019137258">
        <ele>1.4</ele>
        <time>2020-06-19T21:30:49Z</time>
      </trkpt>
      <trkpt lat="51.227314823557" lon="4.461402732332">
        <ele>0</ele>
        <time>2020-06-19T21:31:29Z</time>
      </trkpt>
      <trkpt lat="51.227321696715" lon="4.461139205396">
        <ele>0</ele>
        <time>2020-06-19T21:31:52Z</time>
      </trkpt>
      <trkpt lat="51.227306357838" lon="4.460904428377">
        <ele>0</ele>
        <time>2020-06-19T21:32:11Z</time>
      </trkpt>
      <trkpt lat="51.227253970963" lon="4.460286095614">
        <ele>0</ele>
        <time>2020-06-19T21:34:14Z</time>
      </trkpt>
      <trkpt lat="51.227076777597" lon="4.459643706798">
        <ele>0</ele>
        <time>2020-06-19T21:35:09Z</time>
      </trkpt>
      <trkpt lat="51.227078705434" lon="4.459107768112">
        <ele>0</ele>
        <time>2020-06-19T21:36:00Z</time>
      </trkpt>
      <trkpt lat="51.226994299701" lon="4.459113467804">
        <ele>0</ele>
        <time>2020-06-19T21:36:16Z</time>
      </trkpt>
      <trkpt lat="51.226585765895" lon="4.459460729921">
        <ele>3</ele>
        <time>2020-06-19T21:36:49Z</time>
      </trkpt>
      <trkpt lat="51.226240431615" lon="4.45943566804">
        <ele>4.6</ele>
        <time>2020-06-19T21:37:26Z</time>
      </trkpt>
      <trkpt lat="51.226020993473" lon="4.459085136982">
        <ele>6.8</ele>
        <time>2020-06-19T21:38:41Z</time>
      </trkpt>
      <trkpt lat="51.225918482836" lon="4.458758913434">
        <ele>10.8</ele>
        <time>2020-06-19T21:39:03Z</time>
      </trkpt>
      <trkpt lat="51.226074553814" lon="4.458420452312">
        <ele>7.4</ele>
        <time>2020-06-19T21:39:59Z</time>
      </trkpt>
      <trkpt lat="51.226485686009" lon="4.458115602609">
        <ele>1</ele>
        <time>2020-06-19T21:40:39Z</time>
      </trkpt>
      <trkpt lat="51.226909977787" lon="4.457872778966">
        <ele>3.8</ele>
        <time>2020-06-19T21:41:21Z</time>
      </trkpt>
      <trkpt lat="51.227065462032" lon="4.457786026301">
        <ele>1.4</ele>
        <time>2020-06-19T21:41:42Z</time>
      </trkpt>
      <trkpt lat="51.227209211617" lon="4.457675804316">
        <ele>3.8</ele>
        <time>2020-06-19T21:42:04Z</time>
      </trkpt>
      <trkpt lat="51.227639119268" lon="4.457443206591">
        <ele>0</ele>
        <time>2020-06-19T21:42:44Z</time>
      </trkpt>
      <trkpt lat="51.22799015324" lon="4.457195940541">
        <ele>0.4</ele>
        <time>2020-06-19T21:43:19Z</time>
      </trkpt>
      <trkpt lat="51.228401117797" lon="4.456938867668">
        <ele>4.2</ele>
        <time>2020-06-19T21:44:03Z</time>
      </trkpt>
      <trkpt lat="51.228461635115" lon="4.45692612718">
        <ele>3.4</ele>
        <time>2020-06-19T21:44:09Z</time>
      </trkpt>
      <trkpt lat="51.228931608248" lon="4.456908609009">
        <ele>2.6</ele>
        <time>2020-06-19T21:44:57Z</time>
      </trkpt>
      <trkpt lat="51.228974858852" lon="4.456894778874">
        <ele>2.8</ele>
        <time>2020-06-19T21:45:01Z</time>
      </trkpt>
      <trkpt lat="51.229378028242" lon="4.456680286053">
        <ele>5</ele>
        <time>2020-06-19T21:46:01Z</time>
      </trkpt>
      <trkpt lat="51.229398396259" lon="4.456671485058">
        <ele>4.6</ele>
        <time>2020-06-19T21:46:03Z</time>
      </trkpt>
      <trkpt lat="51.229791255912" lon="4.45667886113">
        <ele>9</ele>
        <time>2020-06-19T21:46:46Z</time>
      </trkpt>
      <trkpt lat="51.229805337504" lon="4.456811462788">
        <ele>9.6</ele>
        <time>2020-06-19T21:47:13Z</time>
      </trkpt>
      <trkpt lat="51.22971933921" lon="4.457152689937">
        <ele>3</ele>
        <time>2020-06-19T21:47:39Z</time>
      </trkpt>
      <trkpt lat="51.229811959205" lon="4.45782550505">
        <ele>0</ele>
        <time>2020-06-19T21:48:37Z</time>
      </trkpt>
      <trkpt lat="51.229605261551" lon="4.457958525803">
        <ele>6.8</ele>
        <time>2020-06-19T21:49:11Z</time>
      </trkpt>
      <trkpt lat="51.229435360438" lon="4.458073525471">
        <ele>4.2</ele>
        <time>2020-06-19T21:50:11Z</time>
      </trkpt>
      <trkpt lat="51.229455393179" lon="4.458067239046">
        <ele>3</ele>
        <time>2020-06-19T21:50:13Z</time>
      </trkpt>
    </trkseg>
  </trk>
</gpx>